sensor_id;sensor_type;location;lat;lon;timestamp;P1;durP1;ratioP1;P2;durP2;ratioP2
67185;SDS011;54116;53.518;49.398;2022-10-17T00:01:12;8.20;;;3.45;;
67185;SDS011;54116;53.518;49.398;2022-10-17T00:03:43;10.45;;;4.03;;
67185;SDS011;54116;53.518;49.398;2022-10-17T00:06:15;7.55;;;3.50;;
67185;SDS011;54116;53.518;49.398;2022-10-17T00:08:46;6.43;;;3.10;;
67185;SDS011;54116;53.518;49.398;2022-10-17T00:11:19;8.48;;;3.55;;
67185;SDS011;54116;53.518;49.398;2022-10-17T00:13:53;9.50;;;4.05;;
67185;SDS011;54116;53.518;49.398;2022-10-17T00:16:29;10.07;;;4.40;;
67185;SDS011;54116;53.518;49.398;2022-10-17T00:19:04;10.23;;;3.70;;
67185;SDS011;54116;53.518;49.398;2022-10-17T00:24:07;10.73;;;3.92;;
67185;SDS011;54116;53.518;49.398;2022-10-17T00:26:39;12.38;;;3.90;;
67185;SDS011;54116;53.518;49.398;2022-10-17T00:29:10;8.27;;;3.42;;
67185;SDS011;54116;53.518;49.398;2022-10-17T00:31:42;8.68;;;4.00;;
67185;SDS011;54116;53.518;49.398;2022-10-17T00:34:13;8.48;;;3.95;;
67185;SDS011;54116;53.518;49.398;2022-10-17T00:36:44;8.43;;;3.88;;
67185;SDS011;54116;53.518;49.398;2022-10-17T00:39:16;7.80;;;3.72;;
67185;SDS011;54116;53.518;49.398;2022-10-17T00:41:47;9.00;;;4.13;;
67185;SDS011;54116;53.518;49.398;2022-10-17T00:47:03;12.07;;;3.63;;
67185;SDS011;54116;53.518;49.398;2022-10-17T00:52:10;9.82;;;3.55;;
67185;SDS011;54116;53.518;49.398;2022-10-17T00:55:08;8.07;;;3.42;;
67185;SDS011;54116;53.518;49.398;2022-10-17T00:57:39;7.90;;;3.47;;
67185;SDS011;54116;53.518;49.398;2022-10-17T01:00:13;7.15;;;3.17;;
67185;SDS011;54116;53.518;49.398;2022-10-17T01:02:46;8.13;;;3.25;;
67185;SDS011;54116;53.518;49.398;2022-10-17T01:05:18;8.30;;;2.95;;
67185;SDS011;54116;53.518;49.398;2022-10-17T01:07:50;9.55;;;3.63;;
67185;SDS011;54116;53.518;49.398;2022-10-17T01:10:26;8.35;;;3.42;;
67185;SDS011;54116;53.518;49.398;2022-10-17T01:13:12;8.75;;;3.60;;
67185;SDS011;54116;53.518;49.398;2022-10-17T01:18:55;8.25;;;3.38;;
67185;SDS011;54116;53.518;49.398;2022-10-17T01:21:38;9.05;;;3.30;;
67185;SDS011;54116;53.518;49.398;2022-10-17T01:33:08;9.43;;;3.70;;
67185;SDS011;54116;53.518;49.398;2022-10-17T01:35:50;7.72;;;3.22;;
67185;SDS011;54116;53.518;49.398;2022-10-17T01:38:29;9.25;;;3.13;;
67185;SDS011;54116;53.518;49.398;2022-10-17T01:41:08;7.53;;;3.70;;
67185;SDS011;54116;53.518;49.398;2022-10-17T01:43:51;10.00;;;3.22;;
67185;SDS011;54116;53.518;49.398;2022-10-17T01:46:32;6.97;;;2.90;;
67185;SDS011;54116;53.518;49.398;2022-10-17T01:49:10;10.38;;;3.95;;
67185;SDS011;54116;53.518;49.398;2022-10-17T01:51:45;10.15;;;3.55;;
67185;SDS011;54116;53.518;49.398;2022-10-17T01:54:24;8.25;;;3.38;;
67185;SDS011;54116;53.518;49.398;2022-10-17T01:57:00;7.72;;;3.17;;
67185;SDS011;54116;53.518;49.398;2022-10-17T01:59:40;7.05;;;3.38;;
67185;SDS011;54116;53.518;49.398;2022-10-17T02:02:14;10.35;;;4.43;;
67185;SDS011;54116;53.518;49.398;2022-10-17T02:04:47;6.72;;;3.35;;
67185;SDS011;54116;53.518;49.398;2022-10-17T02:07:21;10.25;;;3.53;;
67185;SDS011;54116;53.518;49.398;2022-10-17T02:09:52;9.40;;;4.03;;
67185;SDS011;54116;53.518;49.398;2022-10-17T02:12:26;8.20;;;3.30;;
67185;SDS011;54116;53.518;49.398;2022-10-17T02:15:29;10.95;;;3.10;;
67185;SDS011;54116;53.518;49.398;2022-10-17T02:21:35;8.98;;;3.85;;
67185;SDS011;54116;53.518;49.398;2022-10-17T02:24:42;12.18;;;3.63;;
67185;SDS011;54116;53.518;49.398;2022-10-17T02:33:15;9.85;;;3.80;;
67185;SDS011;54116;53.518;49.398;2022-10-17T02:36:14;11.57;;;3.75;;
67185;SDS011;54116;53.518;49.398;2022-10-17T02:38:50;11.55;;;4.22;;
67185;SDS011;54116;53.518;49.398;2022-10-17T02:41:24;13.63;;;3.85;;
67185;SDS011;54116;53.518;49.398;2022-10-17T02:43:56;13.07;;;3.78;;
67185;SDS011;54116;53.518;49.398;2022-10-17T02:46:28;13.00;;;4.00;;
67185;SDS011;54116;53.518;49.398;2022-10-17T02:49:22;9.55;;;3.90;;
67185;SDS011;54116;53.518;49.398;2022-10-17T02:55:17;11.52;;;4.25;;
67185;SDS011;54116;53.518;49.398;2022-10-17T02:57:51;8.80;;;3.67;;
67185;SDS011;54116;53.518;49.398;2022-10-17T03:00:25;12.02;;;4.00;;
67185;SDS011;54116;53.518;49.398;2022-10-17T03:02:58;9.70;;;4.40;;
67185;SDS011;54116;53.518;49.398;2022-10-17T03:05:30;11.45;;;4.07;;
67185;SDS011;54116;53.518;49.398;2022-10-17T03:08:01;11.73;;;3.88;;
67185;SDS011;54116;53.518;49.398;2022-10-17T03:10:33;8.88;;;4.43;;
67185;SDS011;54116;53.518;49.398;2022-10-17T03:13:07;10.30;;;3.88;;
67185;SDS011;54116;53.518;49.398;2022-10-17T03:15:39;7.97;;;3.90;;
67185;SDS011;54116;53.518;49.398;2022-10-17T03:18:10;8.82;;;3.70;;
67185;SDS011;54116;53.518;49.398;2022-10-17T03:20:42;9.48;;;3.80;;
67185;SDS011;54116;53.518;49.398;2022-10-17T03:23:13;14.77;;;3.90;;
67185;SDS011;54116;53.518;49.398;2022-10-17T03:25:47;10.75;;;4.10;;
67185;SDS011;54116;53.518;49.398;2022-10-17T03:28:18;8.05;;;3.80;;
67185;SDS011;54116;53.518;49.398;2022-10-17T03:30:50;10.85;;;3.65;;
67185;SDS011;54116;53.518;49.398;2022-10-17T03:33:21;10.00;;;3.97;;
67185;SDS011;54116;53.518;49.398;2022-10-17T03:35:52;11.35;;;4.10;;
67185;SDS011;54116;53.518;49.398;2022-10-17T03:38:24;12.50;;;4.15;;
67185;SDS011;54116;53.518;49.398;2022-10-17T03:40:55;10.45;;;3.88;;
67185;SDS011;54116;53.518;49.398;2022-10-17T03:43:27;7.22;;;3.35;;
67185;SDS011;54116;53.518;49.398;2022-10-17T03:45:59;12.35;;;3.75;;
67185;SDS011;54116;53.518;49.398;2022-10-17T03:48:31;12.05;;;3.92;;
67185;SDS011;54116;53.518;49.398;2022-10-17T03:51:04;9.52;;;3.70;;
67185;SDS011;54116;53.518;49.398;2022-10-17T03:53:36;12.07;;;4.25;;
67185;SDS011;54116;53.518;49.398;2022-10-17T03:56:12;10.32;;;3.65;;
67185;SDS011;54116;53.518;49.398;2022-10-17T03:58:45;7.97;;;3.70;;
67185;SDS011;54116;53.518;49.398;2022-10-17T04:01:17;8.60;;;3.60;;
67185;SDS011;54116;53.518;49.398;2022-10-17T04:03:50;13.35;;;3.83;;
67185;SDS011;54116;53.518;49.398;2022-10-17T04:06:22;12.77;;;3.67;;
67185;SDS011;54116;53.518;49.398;2022-10-17T04:08:54;11.98;;;3.90;;
67185;SDS011;54116;53.518;49.398;2022-10-17T04:11:25;12.57;;;3.88;;
67185;SDS011;54116;53.518;49.398;2022-10-17T04:13:57;12.35;;;3.58;;
67185;SDS011;54116;53.518;49.398;2022-10-17T04:16:29;12.93;;;4.45;;
67185;SDS011;54116;53.518;49.398;2022-10-17T04:19:00;12.80;;;4.20;;
67185;SDS011;54116;53.518;49.398;2022-10-17T04:21:32;8.10;;;3.90;;
67185;SDS011;54116;53.518;49.398;2022-10-17T04:24:03;17.27;;;4.15;;
67185;SDS011;54116;53.518;49.398;2022-10-17T04:26:35;10.88;;;3.60;;
67185;SDS011;54116;53.518;49.398;2022-10-17T04:29:06;13.07;;;3.72;;
67185;SDS011;54116;53.518;49.398;2022-10-17T04:31:38;9.75;;;4.07;;
67185;SDS011;54116;53.518;49.398;2022-10-17T04:34:09;11.40;;;3.53;;
67185;SDS011;54116;53.518;49.398;2022-10-17T04:36:40;9.13;;;3.78;;
67185;SDS011;54116;53.518;49.398;2022-10-17T04:39:15;10.30;;;3.67;;
67185;SDS011;54116;53.518;49.398;2022-10-17T04:41:46;10.57;;;3.63;;
67185;SDS011;54116;53.518;49.398;2022-10-17T04:44:18;9.65;;;3.90;;
67185;SDS011;54116;53.518;49.398;2022-10-17T04:46:51;9.73;;;3.88;;
67185;SDS011;54116;53.518;49.398;2022-10-17T04:49:22;7.80;;;3.70;;
67185;SDS011;54116;53.518;49.398;2022-10-17T04:51:53;8.88;;;4.35;;
67185;SDS011;54116;53.518;49.398;2022-10-17T04:54:25;13.02;;;4.00;;
67185;SDS011;54116;53.518;49.398;2022-10-17T04:56:56;11.63;;;3.67;;
67185;SDS011;54116;53.518;49.398;2022-10-17T04:59:27;8.20;;;3.47;;
67185;SDS011;54116;53.518;49.398;2022-10-17T05:01:59;7.57;;;3.35;;
67185;SDS011;54116;53.518;49.398;2022-10-17T05:04:31;7.97;;;3.35;;
67185;SDS011;54116;53.518;49.398;2022-10-17T05:07:02;10.85;;;3.35;;
67185;SDS011;54116;53.518;49.398;2022-10-17T05:09:33;6.60;;;2.63;;
67185;SDS011;54116;53.518;49.398;2022-10-17T05:12:05;9.30;;;2.70;;
67185;SDS011;54116;53.518;49.398;2022-10-17T05:14:36;7.28;;;2.60;;
67185;SDS011;54116;53.518;49.398;2022-10-17T05:17:08;7.03;;;2.70;;
67185;SDS011;54116;53.518;49.398;2022-10-17T05:19:39;6.35;;;2.65;;
67185;SDS011;54116;53.518;49.398;2022-10-17T05:22:10;6.53;;;2.95;;
67185;SDS011;54116;53.518;49.398;2022-10-17T05:24:42;6.43;;;2.50;;
67185;SDS011;54116;53.518;49.398;2022-10-17T05:27:13;6.97;;;2.53;;
67185;SDS011;54116;53.518;49.398;2022-10-17T05:29:44;6.47;;;3.45;;
67185;SDS011;54116;53.518;49.398;2022-10-17T05:32:16;7.25;;;2.70;;
67185;SDS011;54116;53.518;49.398;2022-10-17T05:34:50;11.20;;;2.65;;
67185;SDS011;54116;53.518;49.398;2022-10-17T05:37:22;11.27;;;2.75;;
67185;SDS011;54116;53.518;49.398;2022-10-17T05:39:53;6.18;;;2.60;;
67185;SDS011;54116;53.518;49.398;2022-10-17T05:42:25;9.68;;;3.15;;
67185;SDS011;54116;53.518;49.398;2022-10-17T05:44:56;6.13;;;2.78;;
67185;SDS011;54116;53.518;49.398;2022-10-17T05:47:28;8.05;;;3.00;;
67185;SDS011;54116;53.518;49.398;2022-10-17T05:49:59;11.73;;;3.20;;
67185;SDS011;54116;53.518;49.398;2022-10-17T05:52:31;6.82;;;3.30;;
67185;SDS011;54116;53.518;49.398;2022-10-17T05:55:03;6.53;;;2.97;;
67185;SDS011;54116;53.518;49.398;2022-10-17T05:57:35;7.38;;;2.75;;
67185;SDS011;54116;53.518;49.398;2022-10-17T06:00:07;7.22;;;2.90;;
67185;SDS011;54116;53.518;49.398;2022-10-17T06:02:39;6.55;;;2.47;;
67185;SDS011;54116;53.518;49.398;2022-10-17T06:05:10;6.85;;;3.10;;
67185;SDS011;54116;53.518;49.398;2022-10-17T06:07:42;6.57;;;2.70;;
67185;SDS011;54116;53.518;49.398;2022-10-17T06:10:14;7.45;;;2.45;;
67185;SDS011;54116;53.518;49.398;2022-10-17T06:15:18;10.70;;;3.38;;
67185;SDS011;54116;53.518;49.398;2022-10-17T06:17:49;7.25;;;2.70;;
67185;SDS011;54116;53.518;49.398;2022-10-17T06:20:20;10.80;;;3.05;;
67185;SDS011;54116;53.518;49.398;2022-10-17T06:22:52;8.63;;;2.60;;
67185;SDS011;54116;53.518;49.398;2022-10-17T06:25:23;7.30;;;3.17;;
67185;SDS011;54116;53.518;49.398;2022-10-17T06:27:54;7.78;;;3.20;;
67185;SDS011;54116;53.518;49.398;2022-10-17T06:30:26;6.80;;;2.75;;
67185;SDS011;54116;53.518;49.398;2022-10-17T06:33:00;6.57;;;2.75;;
67185;SDS011;54116;53.518;49.398;2022-10-17T06:35:32;9.35;;;3.35;;
67185;SDS011;54116;53.518;49.398;2022-10-17T06:38:03;6.60;;;2.78;;
67185;SDS011;54116;53.518;49.398;2022-10-17T06:40:35;7.82;;;2.80;;
67185;SDS011;54116;53.518;49.398;2022-10-17T06:43:06;8.55;;;2.88;;
67185;SDS011;54116;53.518;49.398;2022-10-17T06:45:38;6.30;;;2.55;;
67185;SDS011;54116;53.518;49.398;2022-10-17T06:48:10;9.25;;;2.45;;
67185;SDS011;54116;53.518;49.398;2022-10-17T06:50:41;7.43;;;2.88;;
67185;SDS011;54116;53.518;49.398;2022-10-17T06:53:12;7.43;;;2.63;;
67185;SDS011;54116;53.518;49.398;2022-10-17T06:55:44;6.63;;;3.30;;
67185;SDS011;54116;53.518;49.398;2022-10-17T06:58:15;6.72;;;2.85;;
67185;SDS011;54116;53.518;49.398;2022-10-17T07:00:46;6.45;;;2.33;;
67185;SDS011;54116;53.518;49.398;2022-10-17T07:03:18;8.18;;;3.13;;
67185;SDS011;54116;53.518;49.398;2022-10-17T07:05:52;7.18;;;3.10;;
67185;SDS011;54116;53.518;49.398;2022-10-17T07:08:25;6.78;;;2.95;;
67185;SDS011;54116;53.518;49.398;2022-10-17T07:10:56;7.95;;;3.05;;
67185;SDS011;54116;53.518;49.398;2022-10-17T07:13:28;11.23;;;3.08;;
67185;SDS011;54116;53.518;49.398;2022-10-17T07:15:59;8.57;;;2.72;;
67185;SDS011;54116;53.518;49.398;2022-10-17T07:18:31;6.55;;;2.60;;
67185;SDS011;54116;53.518;49.398;2022-10-17T07:21:03;6.40;;;2.78;;
67185;SDS011;54116;53.518;49.398;2022-10-17T07:23:35;10.45;;;3.33;;
67185;SDS011;54116;53.518;49.398;2022-10-17T07:26:08;7.68;;;2.67;;
67185;SDS011;54116;53.518;49.398;2022-10-17T07:28:42;9.13;;;2.70;;
67185;SDS011;54116;53.518;49.398;2022-10-17T07:31:16;7.28;;;2.95;;
67185;SDS011;54116;53.518;49.398;2022-10-17T07:33:49;8.18;;;2.80;;
67185;SDS011;54116;53.518;49.398;2022-10-17T07:36:21;7.00;;;2.50;;
67185;SDS011;54116;53.518;49.398;2022-10-17T07:38:55;5.15;;;2.47;;
67185;SDS011;54116;53.518;49.398;2022-10-17T07:41:26;8.55;;;2.63;;
67185;SDS011;54116;53.518;49.398;2022-10-17T07:43:57;8.48;;;2.90;;
67185;SDS011;54116;53.518;49.398;2022-10-17T07:46:29;10.50;;;3.10;;
67185;SDS011;54116;53.518;49.398;2022-10-17T07:49:01;7.68;;;3.03;;
67185;SDS011;54116;53.518;49.398;2022-10-17T07:51:32;8.02;;;2.80;;
67185;SDS011;54116;53.518;49.398;2022-10-17T07:54:04;5.80;;;2.85;;
67185;SDS011;54116;53.518;49.398;2022-10-17T07:56:36;9.18;;;3.45;;
67185;SDS011;54116;53.518;49.398;2022-10-17T07:59:07;7.03;;;3.40;;
67185;SDS011;54116;53.518;49.398;2022-10-17T08:01:39;9.50;;;3.63;;
67185;SDS011;54116;53.518;49.398;2022-10-17T08:04:11;6.97;;;3.13;;
67185;SDS011;54116;53.518;49.398;2022-10-17T08:06:45;8.18;;;3.25;;
67185;SDS011;54116;53.518;49.398;2022-10-17T08:09:17;8.15;;;3.13;;
67185;SDS011;54116;53.518;49.398;2022-10-17T08:11:49;10.80;;;3.50;;
67185;SDS011;54116;53.518;49.398;2022-10-17T08:14:20;10.23;;;3.10;;
67185;SDS011;54116;53.518;49.398;2022-10-17T08:16:53;6.90;;;2.80;;
67185;SDS011;54116;53.518;49.398;2022-10-17T08:19:25;7.10;;;3.13;;
67185;SDS011;54116;53.518;49.398;2022-10-17T08:21:56;6.75;;;3.38;;
67185;SDS011;54116;53.518;49.398;2022-10-17T08:24:31;7.63;;;3.40;;
67185;SDS011;54116;53.518;49.398;2022-10-17T08:27:03;8.50;;;3.75;;
67185;SDS011;54116;53.518;49.398;2022-10-17T08:29:41;8.60;;;3.10;;
67185;SDS011;54116;53.518;49.398;2022-10-17T08:32:13;8.25;;;3.33;;
67185;SDS011;54116;53.518;49.398;2022-10-17T08:34:47;8.07;;;3.45;;
67185;SDS011;54116;53.518;49.398;2022-10-17T08:37:19;7.97;;;3.35;;
67185;SDS011;54116;53.518;49.398;2022-10-17T08:39:51;10.73;;;3.63;;
67185;SDS011;54116;53.518;49.398;2022-10-17T08:42:41;9.98;;;3.33;;
67185;SDS011;54116;53.518;49.398;2022-10-17T08:48:36;6.70;;;2.70;;
67185;SDS011;54116;53.518;49.398;2022-10-17T08:51:25;6.53;;;2.63;;
67185;SDS011;54116;53.518;49.398;2022-10-17T08:54:15;7.93;;;2.83;;
67185;SDS011;54116;53.518;49.398;2022-10-17T08:56:54;8.63;;;2.92;;
67185;SDS011;54116;53.518;49.398;2022-10-17T08:59:26;9.15;;;2.33;;
67185;SDS011;54116;53.518;49.398;2022-10-17T09:02:20;7.70;;;2.53;;
67185;SDS011;54116;53.518;49.398;2022-10-17T09:08:49;6.22;;;2.55;;
67185;SDS011;54116;53.518;49.398;2022-10-17T09:16:30;8.63;;;2.58;;
67185;SDS011;54116;53.518;49.398;2022-10-17T09:19:27;7.03;;;2.05;;
67185;SDS011;54116;53.518;49.398;2022-10-17T09:22:19;5.95;;;2.53;;
67185;SDS011;54116;53.518;49.398;2022-10-17T09:25:01;6.22;;;2.40;;
67185;SDS011;54116;53.518;49.398;2022-10-17T09:27:58;6.80;;;2.50;;
67185;SDS011;54116;53.518;49.398;2022-10-17T09:30:58;7.70;;;2.50;;
67185;SDS011;54116;53.518;49.398;2022-10-17T09:33:40;7.38;;;2.78;;
67185;SDS011;54116;53.518;49.398;2022-10-17T09:38:56;6.20;;;2.20;;
67185;SDS011;54116;53.518;49.398;2022-10-17T09:41:36;4.60;;;2.00;;
67185;SDS011;54116;53.518;49.398;2022-10-17T09:46:59;8.18;;;2.00;;
67185;SDS011;54116;53.518;49.398;2022-10-17T09:49:50;6.03;;;2.30;;
67185;SDS011;54116;53.518;49.398;2022-10-17T09:52:43;5.80;;;2.25;;
67185;SDS011;54116;53.518;49.398;2022-10-17T09:58:12;3.75;;;1.67;;
67185;SDS011;54116;53.518;49.398;2022-10-17T10:00:47;4.78;;;1.65;;
67185;SDS011;54116;53.518;49.398;2022-10-17T10:05:59;7.28;;;2.35;;
67185;SDS011;54116;53.518;49.398;2022-10-17T10:08:34;5.47;;;2.65;;
67185;SDS011;54116;53.518;49.398;2022-10-17T10:11:22;5.47;;;1.88;;
67185;SDS011;54116;53.518;49.398;2022-10-17T10:13:55;5.35;;;2.50;;
67185;SDS011;54116;53.518;49.398;2022-10-17T10:16:42;3.92;;;1.67;;
67185;SDS011;54116;53.518;49.398;2022-10-17T10:22:00;5.13;;;2.10;;
67185;SDS011;54116;53.518;49.398;2022-10-17T10:24:35;4.35;;;1.70;;
67185;SDS011;54116;53.518;49.398;2022-10-17T10:27:11;3.33;;;1.67;;
67185;SDS011;54116;53.518;49.398;2022-10-17T10:29:48;3.90;;;1.52;;
67185;SDS011;54116;53.518;49.398;2022-10-17T10:32:25;3.92;;;1.52;;
67185;SDS011;54116;53.518;49.398;2022-10-17T10:35:17;4.47;;;1.77;;
67185;SDS011;54116;53.518;49.398;2022-10-17T10:37:52;5.35;;;1.58;;
67185;SDS011;54116;53.518;49.398;2022-10-17T10:43:02;7.20;;;1.98;;
67185;SDS011;54116;53.518;49.398;2022-10-17T10:48:17;6.38;;;1.98;;
67185;SDS011;54116;53.518;49.398;2022-10-17T10:51:07;3.67;;;1.95;;
67185;SDS011;54116;53.518;49.398;2022-10-17T10:56:36;4.53;;;1.65;;
67185;SDS011;54116;53.518;49.398;2022-10-17T11:04:48;3.30;;;1.55;;
67185;SDS011;54116;53.518;49.398;2022-10-17T11:13:18;4.43;;;1.80;;
67185;SDS011;54116;53.518;49.398;2022-10-17T11:19:09;4.18;;;1.75;;
67185;SDS011;54116;53.518;49.398;2022-10-17T11:25:33;4.03;;;1.90;;
67185;SDS011;54116;53.518;49.398;2022-10-17T11:27:39;4.40;;;1.70;;
67185;SDS011;54116;53.518;49.398;2022-10-17T11:30:11;5.13;;;1.83;;
67185;SDS011;54116;53.518;49.398;2022-10-17T11:33:04;4.30;;;2.33;;
67185;SDS011;54116;53.518;49.398;2022-10-17T11:35:36;3.95;;;1.42;;
67185;SDS011;54116;53.518;49.398;2022-10-17T11:40:46;6.47;;;2.00;;
67185;SDS011;54116;53.518;49.398;2022-10-17T11:43:26;4.22;;;2.03;;
67185;SDS011;54116;53.518;49.398;2022-10-17T11:46:24;5.10;;;1.98;;
67185;SDS011;54116;53.518;49.398;2022-10-17T11:51:44;4.55;;;1.77;;
67185;SDS011;54116;53.518;49.398;2022-10-17T11:54:23;10.52;;;4.80;;
67185;SDS011;54116;53.518;49.398;2022-10-17T12:09:00;5.75;;;2.03;;
67185;SDS011;54116;53.518;49.398;2022-10-17T12:11:26;7.50;;;2.53;;
67185;SDS011;54116;53.518;49.398;2022-10-17T12:14:33;7.07;;;2.20;;
67185;SDS011;54116;53.518;49.398;2022-10-17T12:22:59;6.88;;;2.17;;
67185;SDS011;54116;53.518;49.398;2022-10-17T12:25:54;3.58;;;1.95;;
67185;SDS011;54116;53.518;49.398;2022-10-17T12:28:44;7.15;;;2.08;;
67185;SDS011;54116;53.518;49.398;2022-10-17T12:33:52;3.75;;;1.83;;
67185;SDS011;54116;53.518;49.398;2022-10-17T12:49:36;4.95;;;2.13;;
67185;SDS011;54116;53.518;49.398;2022-10-17T13:03:18;11.35;;;3.67;;
67185;SDS011;54116;53.518;49.398;2022-10-17T13:05:57;5.45;;;2.60;;
67185;SDS011;54116;53.518;49.398;2022-10-17T13:08:32;7.28;;;2.95;;
67185;SDS011;54116;53.518;49.398;2022-10-17T13:11:07;5.88;;;2.20;;
67185;SDS011;54116;53.518;49.398;2022-10-17T13:13:42;5.95;;;2.67;;
67185;SDS011;54116;53.518;49.398;2022-10-17T13:16:27;6.28;;;2.20;;
67185;SDS011;54116;53.518;49.398;2022-10-17T13:19:00;6.47;;;2.78;;
67185;SDS011;54116;53.518;49.398;2022-10-17T13:21:33;8.10;;;2.83;;
67185;SDS011;54116;53.518;49.398;2022-10-17T13:24:18;5.57;;;2.20;;
67185;SDS011;54116;53.518;49.398;2022-10-17T13:26:57;4.07;;;2.22;;
67185;SDS011;54116;53.518;49.398;2022-10-17T13:29:30;4.75;;;2.22;;
67185;SDS011;54116;53.518;49.398;2022-10-17T13:32:04;8.43;;;2.63;;
67185;SDS011;54116;53.518;49.398;2022-10-17T13:37:12;9.27;;;2.88;;
67185;SDS011;54116;53.518;49.398;2022-10-17T13:39:45;7.72;;;3.05;;
67185;SDS011;54116;53.518;49.398;2022-10-17T13:42:23;10.75;;;3.63;;
67185;SDS011;54116;53.518;49.398;2022-10-17T13:47:31;7.97;;;2.55;;
67185;SDS011;54116;53.518;49.398;2022-10-17T13:50:06;9.82;;;2.95;;
67185;SDS011;54116;53.518;49.398;2022-10-17T13:52:46;10.27;;;3.28;;
67185;SDS011;54116;53.518;49.398;2022-10-17T13:55:18;10.65;;;3.95;;
67185;SDS011;54116;53.518;49.398;2022-10-17T13:57:51;8.20;;;3.55;;
67185;SDS011;54116;53.518;49.398;2022-10-17T14:00:23;12.30;;;3.20;;
67185;SDS011;54116;53.518;49.398;2022-10-17T14:02:55;9.77;;;3.38;;
67185;SDS011;54116;53.518;49.398;2022-10-17T14:05:28;8.45;;;3.35;;
67185;SDS011;54116;53.518;49.398;2022-10-17T14:08:00;7.53;;;2.88;;
67185;SDS011;54116;53.518;49.398;2022-10-17T14:10:35;9.95;;;3.33;;
67185;SDS011;54116;53.518;49.398;2022-10-17T14:13:20;13.30;;;3.72;;
67185;SDS011;54116;53.518;49.398;2022-10-17T14:15:53;12.95;;;5.28;;
67185;SDS011;54116;53.518;49.398;2022-10-17T14:18:28;11.57;;;4.70;;
67185;SDS011;54116;53.518;49.398;2022-10-17T14:21:03;11.68;;;4.90;;
67185;SDS011;54116;53.518;49.398;2022-10-17T14:28:50;8.80;;;3.92;;
67185;SDS011;54116;53.518;49.398;2022-10-17T14:31:39;9.05;;;3.80;;
67185;SDS011;54116;53.518;49.398;2022-10-17T14:34:19;11.55;;;5.32;;
67185;SDS011;54116;53.518;49.398;2022-10-17T14:36:55;9.18;;;4.07;;
67185;SDS011;54116;53.518;49.398;2022-10-17T14:39:27;9.80;;;4.03;;
67185;SDS011;54116;53.518;49.398;2022-10-17T14:41:59;9.38;;;3.40;;
67185;SDS011;54116;53.518;49.398;2022-10-17T14:44:32;8.85;;;3.35;;
67185;SDS011;54116;53.518;49.398;2022-10-17T14:47:05;7.22;;;3.25;;
67185;SDS011;54116;53.518;49.398;2022-10-17T14:49:47;8.98;;;3.80;;
67185;SDS011;54116;53.518;49.398;2022-10-17T14:52:24;14.05;;;4.07;;
67185;SDS011;54116;53.518;49.398;2022-10-17T14:54:59;11.95;;;6.10;;
67185;SDS011;54116;53.518;49.398;2022-10-17T14:57:43;12.25;;;6.00;;
67185;SDS011;54116;53.518;49.398;2022-10-17T15:00:17;12.73;;;4.75;;
67185;SDS011;54116;53.518;49.398;2022-10-17T15:02:50;10.18;;;4.68;;
67185;SDS011;54116;53.518;49.398;2022-10-17T15:05:27;7.47;;;3.00;;
67185;SDS011;54116;53.518;49.398;2022-10-17T15:07:59;7.28;;;2.85;;
67185;SDS011;54116;53.518;49.398;2022-10-17T15:10:31;6.28;;;3.05;;
67185;SDS011;54116;53.518;49.398;2022-10-17T15:13:06;7.50;;;2.85;;
67185;SDS011;54116;53.518;49.398;2022-10-17T15:18:11;5.40;;;2.22;;
67185;SDS011;54116;53.518;49.398;2022-10-17T15:20:44;5.13;;;2.10;;
67185;SDS011;54116;53.518;49.398;2022-10-17T15:23:16;5.80;;;2.20;;
67185;SDS011;54116;53.518;49.398;2022-10-17T15:25:51;6.00;;;2.40;;
67185;SDS011;54116;53.518;49.398;2022-10-17T15:28:23;6.35;;;2.40;;
67185;SDS011;54116;53.518;49.398;2022-10-17T15:30:55;5.93;;;2.25;;
67185;SDS011;54116;53.518;49.398;2022-10-17T15:33:26;7.03;;;2.40;;
67185;SDS011;54116;53.518;49.398;2022-10-17T15:35:59;6.25;;;2.10;;
67185;SDS011;54116;53.518;49.398;2022-10-17T15:38:32;5.03;;;2.58;;
67185;SDS011;54116;53.518;49.398;2022-10-17T15:41:04;6.90;;;2.80;;
67185;SDS011;54116;53.518;49.398;2022-10-17T15:43:37;7.20;;;2.40;;
67185;SDS011;54116;53.518;49.398;2022-10-17T15:46:13;6.43;;;2.50;;
67185;SDS011;54116;53.518;49.398;2022-10-17T15:48:47;7.40;;;2.60;;
67185;SDS011;54116;53.518;49.398;2022-10-17T15:51:19;6.75;;;2.53;;
67185;SDS011;54116;53.518;49.398;2022-10-17T15:53:51;5.10;;;1.98;;
67185;SDS011;54116;53.518;49.398;2022-10-17T15:56:27;5.75;;;2.40;;
67185;SDS011;54116;53.518;49.398;2022-10-17T15:59:05;5.90;;;2.13;;
67185;SDS011;54116;53.518;49.398;2022-10-17T16:01:49;5.05;;;2.65;;
67185;SDS011;54116;53.518;49.398;2022-10-17T16:04:20;6.05;;;2.25;;
67185;SDS011;54116;53.518;49.398;2022-10-17T16:06:54;6.88;;;2.40;;
67185;SDS011;54116;53.518;49.398;2022-10-17T16:09:26;6.70;;;2.50;;
67185;SDS011;54116;53.518;49.398;2022-10-17T16:12:00;7.15;;;2.47;;
67185;SDS011;54116;53.518;49.398;2022-10-17T16:14:32;5.18;;;2.25;;
67185;SDS011;54116;53.518;49.398;2022-10-17T16:17:05;5.75;;;2.42;;
67185;SDS011;54116;53.518;49.398;2022-10-17T16:19:36;4.78;;;2.17;;
67185;SDS011;54116;53.518;49.398;2022-10-17T16:22:26;8.70;;;2.50;;
67185;SDS011;54116;53.518;49.398;2022-10-17T16:25:09;6.43;;;2.63;;
67185;SDS011;54116;53.518;49.398;2022-10-17T16:27:50;7.00;;;2.53;;
67185;SDS011;54116;53.518;49.398;2022-10-17T16:30:25;8.13;;;2.38;;
67185;SDS011;54116;53.518;49.398;2022-10-17T16:32:58;11.90;;;2.85;;
67185;SDS011;54116;53.518;49.398;2022-10-17T16:35:31;5.88;;;2.38;;
67185;SDS011;54116;53.518;49.398;2022-10-17T16:38:05;8.02;;;2.83;;
67185;SDS011;54116;53.518;49.398;2022-10-17T16:40:37;6.50;;;2.65;;
67185;SDS011;54116;53.518;49.398;2022-10-17T16:43:11;8.63;;;2.72;;
67185;SDS011;54116;53.518;49.398;2022-10-17T16:48:22;7.82;;;2.80;;
67185;SDS011;54116;53.518;49.398;2022-10-17T16:50:56;6.47;;;2.90;;
67185;SDS011;54116;53.518;49.398;2022-10-17T16:53:27;5.25;;;2.30;;
67185;SDS011;54116;53.518;49.398;2022-10-17T16:56:00;6.82;;;2.50;;
67185;SDS011;54116;53.518;49.398;2022-10-17T16:58:32;10.02;;;2.92;;
67185;SDS011;54116;53.518;49.398;2022-10-17T17:01:06;9.85;;;3.13;;
67185;SDS011;54116;53.518;49.398;2022-10-17T17:03:45;11.75;;;3.10;;
67185;SDS011;54116;53.518;49.398;2022-10-17T17:06:20;10.70;;;2.95;;
67185;SDS011;54116;53.518;49.398;2022-10-17T17:09:00;7.90;;;2.72;;
67185;SDS011;54116;53.518;49.398;2022-10-17T17:11:31;8.18;;;2.92;;
67185;SDS011;54116;53.518;49.398;2022-10-17T17:14:04;9.20;;;2.72;;
67185;SDS011;54116;53.518;49.398;2022-10-17T17:16:40;8.43;;;2.63;;
67185;SDS011;54116;53.518;49.398;2022-10-17T17:19:15;8.00;;;2.40;;
67185;SDS011;54116;53.518;49.398;2022-10-17T17:21:48;6.22;;;2.63;;
67185;SDS011;54116;53.518;49.398;2022-10-17T17:24:23;7.43;;;2.58;;
67185;SDS011;54116;53.518;49.398;2022-10-17T17:26:55;5.97;;;2.65;;
67185;SDS011;54116;53.518;49.398;2022-10-17T17:29:33;7.15;;;2.60;;
67185;SDS011;54116;53.518;49.398;2022-10-17T17:32:04;7.47;;;2.47;;
67185;SDS011;54116;53.518;49.398;2022-10-17T17:34:39;6.03;;;2.65;;
67185;SDS011;54116;53.518;49.398;2022-10-17T17:37:12;6.50;;;2.80;;
67185;SDS011;54116;53.518;49.398;2022-10-17T17:39:44;6.95;;;2.63;;
67185;SDS011;54116;53.518;49.398;2022-10-17T17:42:17;6.25;;;3.03;;
67185;SDS011;54116;53.518;49.398;2022-10-17T17:47:26;6.95;;;2.92;;
67185;SDS011;54116;53.518;49.398;2022-10-17T17:50:02;6.28;;;2.88;;
67185;SDS011;54116;53.518;49.398;2022-10-17T17:52:34;10.05;;;2.80;;